createdAt,value
2022-09-03T00:02:34.796Z,16.60
2022-09-03T00:05:27.180Z,16.60
2022-09-03T00:08:21.674Z,16.60
2022-09-03T00:11:17.628Z,16.60
2022-09-03T00:14:09.064Z,16.60
2022-09-03T00:16:59.652Z,16.60
2022-09-03T00:19:54.333Z,16.60
2022-09-03T00:22:45.923Z,16.50
2022-09-03T00:25:40.009Z,16.50
2022-09-03T00:28:35.945Z,16.50
2022-09-03T00:31:28.432Z,16.50
2022-09-03T00:34:24.087Z,16.40
2022-09-03T00:37:14.422Z,16.40
2022-09-03T00:40:03.532Z,16.20
2022-09-03T00:43:02.103Z,16.20
2022-09-03T00:45:58.747Z,16.20
2022-09-03T00:48:59.794Z,16.10
2022-09-03T00:51:57.145Z,16.10
2022-09-03T00:54:54.664Z,16.10
2022-09-03T00:57:57.652Z,16.10
2022-09-03T01:00:46.661Z,16.10
2022-09-03T01:03:43.556Z,16.00
2022-09-03T01:06:42.974Z,16.00
2022-09-03T01:09:49.128Z,16.00
2022-09-03T01:12:43.659Z,16.00
2022-09-03T01:15:40.497Z,16.00
2022-09-03T01:18:38.866Z,16.00
2022-09-03T01:21:48.361Z,16.00
2022-09-03T01:24:59.355Z,15.90
2022-09-03T01:28:10.424Z,15.90
2022-09-03T01:31:04.032Z,15.90
2022-09-03T01:33:59.104Z,15.80
2022-09-03T01:36:56.462Z,15.70
2022-09-03T01:39:55.669Z,15.80
2022-09-03T01:42:55.245Z,15.70
2022-09-03T01:45:51.648Z,15.70
2022-09-03T01:48:47.534Z,15.70
2022-09-03T01:51:35.196Z,15.60
2022-09-03T01:54:45.334Z,15.60
2022-09-03T01:57:37.139Z,15.60
2022-09-03T02:00:25.416Z,15.60
2022-09-03T02:03:15.563Z,15.50
2022-09-03T02:06:03.819Z,15.50
2022-09-03T02:08:50.866Z,15.40
2022-09-03T02:11:38.186Z,15.40
2022-09-03T02:14:28.816Z,15.40
2022-09-03T02:17:15.832Z,15.50
2022-09-03T02:20:11.025Z,15.50
2022-09-03T02:22:59.981Z,15.50
2022-09-03T02:25:51.739Z,15.50
2022-09-03T02:28:39.120Z,15.50
2022-09-03T02:31:27.888Z,15.50
2022-09-03T02:34:15.053Z,15.50
2022-09-03T02:37:14.735Z,15.50
2022-09-03T02:40:02.206Z,15.50
2022-09-03T02:42:50.425Z,15.40
2022-09-03T02:45:44.616Z,15.40
2022-09-03T02:48:31.741Z,15.30
2022-09-03T02:51:18.889Z,15.30
2022-09-03T02:54:07.796Z,15.30
2022-09-03T02:56:55.162Z,15.30
2022-09-03T02:59:44.528Z,15.20
2022-09-03T03:02:31.573Z,15.20
2022-09-03T03:05:28.106Z,15.20
2022-09-03T03:08:17.117Z,15.20
2022-09-03T03:11:05.611Z,15.10
2022-09-03T03:13:53.121Z,15.10
2022-09-03T03:16:40.248Z,15.10
2022-09-03T03:19:27.091Z,15.00
2022-09-03T03:22:13.974Z,15.00
2022-09-03T03:25:01.582Z,15.00
2022-09-03T03:27:49.840Z,15.00
2022-09-03T03:30:40.346Z,14.90
2022-09-03T03:33:27.446Z,14.90
2022-09-03T03:36:16.764Z,14.80
2022-09-03T03:39:04.666Z,14.80
2022-09-03T03:41:52.526Z,14.80
2022-09-03T03:44:42.751Z,14.80
2022-09-03T03:47:31.009Z,14.70
2022-09-03T03:50:18.389Z,14.70
2022-09-03T03:53:05.636Z,14.70
2022-09-03T03:55:57.707Z,14.70
2022-09-03T03:58:45.298Z,14.60
2022-09-03T04:01:34.189Z,14.60
2022-09-03T04:04:21.757Z,14.60
2022-09-03T04:07:08.940Z,14.60
2022-09-03T04:09:56.160Z,14.50
2022-09-03T04:12:43.651Z,14.60
2022-09-03T04:15:31.001Z,14.50
2022-09-03T04:18:19.319Z,14.50
2022-09-03T04:21:08.912Z,14.50
2022-09-03T04:23:56.532Z,14.50
2022-09-03T04:26:43.504Z,14.50
2022-09-03T04:29:31.736Z,14.40
2022-09-03T04:32:33.940Z,14.40
2022-09-03T04:35:22.438Z,14.50
2022-09-03T04:38:08.456Z,14.40
2022-09-03T04:40:55.423Z,14.40
2022-09-03T04:43:43.821Z,14.50
2022-09-03T04:46:34.101Z,14.50
2022-09-03T04:49:21.698Z,14.50
2022-09-03T04:52:10.377Z,14.60
2022-09-03T04:54:57.291Z,14.60
2022-09-03T04:57:44.488Z,14.60
2022-09-03T05:00:31.910Z,14.60
2022-09-03T05:03:19.020Z,14.70
2022-09-03T05:06:08.163Z,14.70
2022-09-03T05:08:57.443Z,14.80
2022-09-03T05:11:45.151Z,14.80
2022-09-03T05:14:32.293Z,14.90
2022-09-03T05:17:19.454Z,14.90
2022-09-03T05:20:08.343Z,15.00
2022-09-03T05:22:55.194Z,15.00
2022-09-03T05:25:43.528Z,15.10
2022-09-03T05:28:32.189Z,15.20
2022-09-03T05:31:21.883Z,15.20
2022-09-03T05:34:10.364Z,15.30
2022-09-03T05:37:04.214Z,15.30
2022-09-03T05:39:51.416Z,15.30
2022-09-03T05:42:39.958Z,15.40
2022-09-03T05:45:26.903Z,15.50
2022-09-03T05:48:13.920Z,15.50
2022-09-03T05:51:02.138Z,15.60
2022-09-03T05:53:50.498Z,15.70
2022-09-03T05:56:40.239Z,15.80
2022-09-03T05:59:28.869Z,15.80
2022-09-03T06:02:26.166Z,15.90
2022-09-03T06:05:13.309Z,16.10
2022-09-03T06:08:00.474Z,16.10
2022-09-03T06:10:47.455Z,16.20
2022-09-03T06:13:35.545Z,16.30
2022-09-03T06:16:30.567Z,16.30
2022-09-03T06:19:19.917Z,16.40
2022-09-03T06:22:06.926Z,16.50
2022-09-03T06:24:54.666Z,16.50
2022-09-03T06:27:41.625Z,16.70
2022-09-03T06:30:28.777Z,16.80
2022-09-03T06:33:18.994Z,16.80
2022-09-03T06:36:08.984Z,16.90
2022-09-03T06:38:57.862Z,16.90
2022-09-03T06:41:46.157Z,17.00
2022-09-03T06:44:33.440Z,17.00
2022-09-03T06:47:20.649Z,17.10
2022-09-03T06:50:10.221Z,17.10
2022-09-03T06:52:57.220Z,17.20
2022-09-03T06:55:45.550Z,17.20
2022-09-03T06:58:35.453Z,17.20
2022-09-03T07:01:25.903Z,17.30
2022-09-03T07:04:16.479Z,17.30
2022-09-03T07:07:05.745Z,17.30
2022-09-03T07:09:52.885Z,17.30
2022-09-03T07:12:40.967Z,17.30
2022-09-03T07:15:28.460Z,17.30
2022-09-03T07:18:15.748Z,17.30
2022-09-03T07:21:05.260Z,17.30
2022-09-03T07:23:55.507Z,17.30
2022-09-03T07:26:46.544Z,17.40
2022-09-03T07:29:33.782Z,17.40
2022-09-03T07:32:21.088Z,17.40
2022-09-03T07:35:08.654Z,17.40
2022-09-03T07:37:56.575Z,17.30
2022-09-03T07:40:45.461Z,17.40
2022-09-03T07:43:38.324Z,17.40
2022-09-03T07:46:27.299Z,17.30
2022-09-03T07:49:14.764Z,17.30
2022-09-03T07:52:02.166Z,17.40
2022-09-03T07:54:49.526Z,17.40
2022-09-03T07:57:38.068Z,17.40
2022-09-03T08:00:25.206Z,17.40
2022-09-03T08:03:14.826Z,17.40
2022-09-03T08:06:03.949Z,17.40
2022-09-03T08:09:00.868Z,17.50
2022-09-03T08:11:51.711Z,17.50
2022-09-03T08:14:40.391Z,17.50
2022-09-03T08:17:27.310Z,17.60
2022-09-03T08:20:14.242Z,17.60
2022-09-03T08:23:03.517Z,17.70
2022-09-03T08:25:50.624Z,17.70
2022-09-03T08:28:38.961Z,17.80
2022-09-03T08:31:28.417Z,17.90
2022-09-03T08:34:17.686Z,18.00
2022-09-03T08:37:05.706Z,18.20
2022-09-03T08:39:53.008Z,18.30
2022-09-03T08:42:51.514Z,18.40
2022-09-03T08:45:39.469Z,18.50
2022-09-03T08:48:30.348Z,18.60
2022-09-03T08:51:23.192Z,18.70
2022-09-03T08:54:12.127Z,18.80
2022-09-03T08:57:03.234Z,19.00
2022-09-03T08:59:55.948Z,19.20
2022-09-03T09:03:01.728Z,19.40
2022-09-03T09:05:57.225Z,19.60
2022-09-03T09:08:55.781Z,19.80
2022-09-03T09:11:52.633Z,20.10
2022-09-03T09:14:46.531Z,20.30
2022-09-03T09:17:49.093Z,20.40
2022-09-03T09:20:44.766Z,20.60
2022-09-03T09:23:37.227Z,20.70
2022-09-03T09:26:24.560Z,20.90
2022-09-03T09:29:14.526Z,21.10
2022-09-03T09:32:01.789Z,21.30
2022-09-03T09:34:52.353Z,21.60
2022-09-03T09:37:49.552Z,21.90
2022-09-03T09:40:45.080Z,22.10
2022-09-03T09:43:33.057Z,22.30
2022-09-03T09:46:24.303Z,22.50
2022-09-03T09:49:33.140Z,22.70
2022-09-03T09:52:25.941Z,23.10
2022-09-03T09:55:18.541Z,23.30
2022-09-03T09:58:14.273Z,23.60
2022-09-03T10:01:13.466Z,23.70
2022-09-03T10:04:09.381Z,23.90
2022-09-03T10:06:58.365Z,24.00
2022-09-03T10:09:45.650Z,24.20
2022-09-03T10:12:37.998Z,24.30
2022-09-03T10:15:34.312Z,24.40
2022-09-03T10:18:29.185Z,24.40
2022-09-03T10:21:24.772Z,24.40
2022-09-03T10:24:30.321Z,24.40
2022-09-03T10:27:20.088Z,24.40
2022-09-03T10:30:08.918Z,24.40
2022-09-03T10:33:06.521Z,24.50
2022-09-03T10:36:06.906Z,24.60
2022-09-03T10:39:01.738Z,24.70
2022-09-03T10:42:03.813Z,24.80
2022-09-03T10:45:02.327Z,24.90
2022-09-03T10:48:13.364Z,25.00
2022-09-03T10:51:06.556Z,25.10
2022-09-03T10:53:58.658Z,25.20
2022-09-03T10:56:54.828Z,25.20
2022-09-03T10:59:56.101Z,25.40
2022-09-03T11:03:07.845Z,25.50
2022-09-03T11:05:54.800Z,25.60
2022-09-03T11:08:51.268Z,25.70
2022-09-03T11:11:43.502Z,25.80
2022-09-03T11:14:39.682Z,25.80
2022-09-03T11:17:32.237Z,25.80
2022-09-03T11:20:22.427Z,25.90
2022-09-03T11:23:13.514Z,26.00
2022-09-03T11:26:07.154Z,26.10
2022-09-03T11:29:02.621Z,26.10
2022-09-03T11:31:59.202Z,26.00
2022-09-03T11:34:48.489Z,25.90
2022-09-03T11:37:51.361Z,26.00
2022-09-03T11:40:41.171Z,26.00
2022-09-03T11:43:32.349Z,26.00
2022-09-03T11:46:32.081Z,26.00
2022-09-03T11:49:31.135Z,26.20
2022-09-03T11:52:28.555Z,26.30
2022-09-03T11:55:32.661Z,26.60
2022-09-03T11:58:28.247Z,26.70
2022-09-03T12:01:19.902Z,26.90
2022-09-03T12:04:09.915Z,27.00
2022-09-03T12:07:20.137Z,27.10
2022-09-03T12:10:14.353Z,27.00
2022-09-03T12:13:15.191Z,26.90
2022-09-03T12:16:28.813Z,26.70
2022-09-03T12:19:22.530Z,26.70
2022-09-03T12:22:15.122Z,26.60
2022-09-03T12:25:11.955Z,26.80
2022-09-03T12:28:05.257Z,26.90
2022-09-03T12:30:53.600Z,27.10
2022-09-03T12:33:43.251Z,27.10
2022-09-03T12:36:41.170Z,27.20
2022-09-03T12:42:38.303Z,27.50
2022-09-03T12:46:10.008Z,27.40
2022-09-03T12:48:34.819Z,27.40
2022-09-03T12:54:30.791Z,27.50
2022-09-03T12:57:23.623Z,27.50
2022-09-03T13:00:16.112Z,27.50
2022-09-03T13:03:07.861Z,27.50
2022-09-03T13:05:59.003Z,27.40
2022-09-03T13:08:50.850Z,27.40
2022-09-03T13:11:39.478Z,27.30
2022-09-03T13:14:28.045Z,27.20
2022-09-03T13:17:28.548Z,27.10
2022-09-03T13:20:31.970Z,27.10
2022-09-03T13:23:39.160Z,27.30
2022-09-03T13:26:39.563Z,27.40
2022-09-03T13:29:52.658Z,27.40
2022-09-03T13:32:51.940Z,27.40
2022-09-03T13:35:47.024Z,27.50
2022-09-03T13:38:41.281Z,27.60
2022-09-03T13:41:38.514Z,27.60
2022-09-03T13:44:38.073Z,27.60
2022-09-03T13:47:36.817Z,27.70
2022-09-03T13:50:27.101Z,27.70
2022-09-03T13:53:30.458Z,27.60
2022-09-03T13:56:25.874Z,27.50
2022-09-03T13:59:21.707Z,27.40
2022-09-03T14:02:23.762Z,27.30
2022-09-03T14:05:18.018Z,27.30
2022-09-03T14:08:14.406Z,27.20
2022-09-03T14:11:15.737Z,27.10
2022-09-03T14:14:13.669Z,27.00
2022-09-03T14:17:07.487Z,27.00
2022-09-03T14:19:59.695Z,27.00
2022-09-03T14:22:54.694Z,26.90
2022-09-03T14:25:44.919Z,26.80
2022-09-03T14:28:37.294Z,26.70
2022-09-03T14:31:40.155Z,26.40
2022-09-03T14:34:41.648Z,25.40
2022-09-03T14:37:47.689Z,24.00
2022-09-03T14:40:44.449Z,22.80
2022-09-03T14:43:59.302Z,22.10
2022-09-03T14:46:58.263Z,21.80
2022-09-03T14:49:55.402Z,21.70
2022-09-03T14:53:09.355Z,21.70
2022-09-03T14:56:16.732Z,21.60
2022-09-03T14:59:26.172Z,21.60
2022-09-03T15:02:25.727Z,21.50
2022-09-03T15:05:22.428Z,21.50
2022-09-03T15:08:18.206Z,21.40
2022-09-03T15:11:17.027Z,21.20
2022-09-03T15:14:11.914Z,21.20
2022-09-03T15:17:03.336Z,21.20
2022-09-03T15:20:07.639Z,21.20
2022-09-03T15:23:13.550Z,21.20
2022-09-03T15:26:33.361Z,21.10
2022-09-03T15:29:40.617Z,20.90
2022-09-03T15:32:40.953Z,20.90
2022-09-03T15:35:45.223Z,20.80
2022-09-03T15:38:44.983Z,20.70
2022-09-03T15:41:41.711Z,20.60
2022-09-03T15:44:38.734Z,20.50
2022-09-03T15:47:52.065Z,20.50
2022-09-03T15:50:52.794Z,20.30
2022-09-03T15:53:47.799Z,20.30
2022-09-03T15:56:41.040Z,20.20
2022-09-03T15:59:39.431Z,20.20
2022-09-03T16:02:33.733Z,20.20
2022-09-03T16:05:24.163Z,20.10
2022-09-03T16:08:20.970Z,20.00
2022-09-03T16:11:17.194Z,19.90
2022-09-03T16:14:11.664Z,19.80
2022-09-03T16:17:06.530Z,19.90
2022-09-03T16:19:59.886Z,19.90
2022-09-03T16:22:50.707Z,20.00
2022-09-03T16:25:50.099Z,19.90
2022-09-03T16:28:48.152Z,20.00
2022-09-03T16:31:50.014Z,20.00
2022-09-03T16:34:50.630Z,20.10
2022-09-03T16:37:52.897Z,20.10
2022-09-03T16:40:46.956Z,20.10
2022-09-03T16:43:45.244Z,20.10
2022-09-03T16:46:48.490Z,20.00
2022-09-03T16:49:49.012Z,19.90
2022-09-03T16:52:48.956Z,19.90
2022-09-03T16:55:59.128Z,19.90
2022-09-03T16:59:00.497Z,19.90
2022-09-03T17:02:18.293Z,19.90
2022-09-03T17:05:34.167Z,19.90
2022-09-03T17:08:28.997Z,19.80
2022-09-03T17:11:38.306Z,19.70
2022-09-03T17:14:44.077Z,19.70
2022-09-03T17:17:49.906Z,19.70
2022-09-03T17:20:51.090Z,19.60
2022-09-03T17:23:55.172Z,19.60
2022-09-03T17:26:56.038Z,19.60
2022-09-03T17:29:57.093Z,19.50
2022-09-03T17:33:10.023Z,19.50
2022-09-03T17:36:07.816Z,19.40
2022-09-03T17:39:18.174Z,19.40
2022-09-03T17:42:13.532Z,19.30
2022-09-03T17:45:15.335Z,19.20
2022-09-03T17:48:18.559Z,19.10
2022-09-03T17:51:12.829Z,19.00
2022-09-03T17:54:07.969Z,18.90
2022-09-03T17:57:04.258Z,18.90
2022-09-03T17:59:57.103Z,18.80
2022-09-03T18:02:51.623Z,18.80
2022-09-03T18:05:48.524Z,18.70
2022-09-03T18:08:44.921Z,18.70
2022-09-03T18:11:38.581Z,18.70
2022-09-03T18:14:32.351Z,18.60
2022-09-03T18:17:29.417Z,18.60
2022-09-03T18:20:31.099Z,18.50
2022-09-03T18:23:41.764Z,18.50
2022-09-03T18:26:50.288Z,18.40
2022-09-03T18:30:02.437Z,18.40
2022-09-03T18:33:07.387Z,18.40
2022-09-03T18:36:14.351Z,18.30
2022-09-03T18:39:30.494Z,18.30
2022-09-03T18:42:44.870Z,18.40
2022-09-03T18:49:30.278Z,18.20
2022-09-03T18:52:43.643Z,18.20
2022-09-03T18:56:01.744Z,18.10
2022-09-03T18:59:23.337Z,18.10
2022-09-03T19:02:42.040Z,18.00
2022-09-03T19:05:57.046Z,17.90
2022-09-03T19:09:10.789Z,17.80
2022-09-03T19:12:35.150Z,17.80
2022-09-03T19:15:44.683Z,17.70
2022-09-03T19:19:10.774Z,17.70
2022-09-03T19:22:26.533Z,17.60
2022-09-03T19:25:33.811Z,17.60
2022-09-03T19:28:42.099Z,17.60
2022-09-03T19:32:00.381Z,17.60
2022-09-03T19:35:18.304Z,17.60
2022-09-03T19:38:32.081Z,17.50
2022-09-03T19:41:48.978Z,17.50
2022-09-03T19:45:11.384Z,17.40
2022-09-03T19:48:27.852Z,17.40
2022-09-03T19:51:37.566Z,17.40
2022-09-03T19:54:45.918Z,17.30
2022-09-03T19:57:51.288Z,17.30
2022-09-03T20:00:57.587Z,17.30
2022-09-03T20:04:02.182Z,17.20
2022-09-03T20:07:07.036Z,17.20
2022-09-03T20:10:15.022Z,17.20
2022-09-03T20:13:07.942Z,17.10
2022-09-03T20:16:07.273Z,17.10
2022-09-03T20:19:01.118Z,17.00
2022-09-03T20:21:52.976Z,17.00
2022-09-03T20:24:47.347Z,16.90
2022-09-03T20:27:44.670Z,16.90
2022-09-03T20:30:37.757Z,16.90
2022-09-03T20:33:42.213Z,16.90
2022-09-03T20:36:41.796Z,16.90
2022-09-03T20:39:41.425Z,16.80
2022-09-03T20:42:43.070Z,16.80
2022-09-03T20:45:42.380Z,16.80
2022-09-03T20:48:47.340Z,16.70
2022-09-03T20:51:41.183Z,16.70
2022-09-03T20:54:33.830Z,16.70
2022-09-03T20:57:32.502Z,16.60
2022-09-03T21:00:23.673Z,16.60
2022-09-03T21:03:17.029Z,16.60
2022-09-03T21:06:18.114Z,16.60
2022-09-03T21:09:21.625Z,16.50
2022-09-03T21:12:14.696Z,16.40
2022-09-03T21:15:09.316Z,16.50
2022-09-03T21:18:07.895Z,16.40
2022-09-03T21:21:09.746Z,16.40
2022-09-03T21:24:06.278Z,16.40
2022-09-03T21:26:58.376Z,16.40
2022-09-03T21:29:59.681Z,16.40
2022-09-03T21:32:52.399Z,16.40
2022-09-03T21:35:44.031Z,16.30
2022-09-03T21:38:37.292Z,16.30
2022-09-03T21:41:31.710Z,16.30
2022-09-03T21:44:23.953Z,16.20
2022-09-03T21:47:13.892Z,16.20
2022-09-03T21:50:11.946Z,16.20
2022-09-03T21:53:08.172Z,16.10
2022-09-03T21:56:14.971Z,16.10
2022-09-03T21:59:10.668Z,16.10
2022-09-03T22:02:05.587Z,16.10
2022-09-03T22:04:53.674Z,16.00
2022-09-03T22:07:56.329Z,16.00
2022-09-03T22:10:55.427Z,16.00
2022-09-03T22:13:48.705Z,16.00
2022-09-03T22:16:45.011Z,16.00
2022-09-03T22:19:40.570Z,15.90
2022-09-03T22:22:44.375Z,15.90
2022-09-03T22:25:40.660Z,15.90
2022-09-03T22:28:37.951Z,15.90
2022-09-03T22:31:37.115Z,15.90
2022-09-03T22:34:41.866Z,15.90
2022-09-03T22:37:43.713Z,15.80
2022-09-03T22:40:37.770Z,15.80
2022-09-03T22:43:37.268Z,15.80
2022-09-03T22:46:28.803Z,15.80
2022-09-03T22:49:30.385Z,15.80
2022-09-03T22:52:31.060Z,15.80
2022-09-03T22:55:21.465Z,15.70
2022-09-03T22:58:12.558Z,15.70
2022-09-03T23:01:05.468Z,15.70
2022-09-03T23:03:58.014Z,15.60
2022-09-03T23:06:53.625Z,15.60
2022-09-03T23:09:45.763Z,15.60
2022-09-03T23:12:42.049Z,15.60
2022-09-03T23:15:30.638Z,15.50
2022-09-03T23:18:27.098Z,15.50
2022-09-03T23:21:24.023Z,15.50
2022-09-03T23:24:17.733Z,15.50
2022-09-03T23:27:11.902Z,15.40
2022-09-03T23:30:03.025Z,15.40
2022-09-03T23:32:54.946Z,15.40
2022-09-03T23:35:49.969Z,15.40
2022-09-03T23:38:45.942Z,15.30
2022-09-03T23:41:43.985Z,15.30
2022-09-03T23:44:48.606Z,15.30
2022-09-03T23:47:45.804Z,15.30
2022-09-03T23:50:40.172Z,15.30
2022-09-03T23:53:39.830Z,15.20
2022-09-03T23:56:45.047Z,15.20
2022-09-03T23:59:44.791Z,15.20
